sensor_id;sensor_type;location;lat;lon;timestamp;temperature;humidity
83553;DHT22;73510;50.866;5.420;2023-12-28T00:00:58;11.30;64.70
83553;DHT22;73510;50.866;5.420;2023-12-28T00:03:24;11.30;64.70
83553;DHT22;73510;50.866;5.420;2023-12-28T00:05:50;11.30;65.30
83553;DHT22;73510;50.866;5.420;2023-12-28T00:08:15;11.30;65.30
83553;DHT22;73510;50.866;5.420;2023-12-28T00:10:41;11.30;65.40
83553;DHT22;73510;50.866;5.420;2023-12-28T00:13:07;11.30;65.80
83553;DHT22;73510;50.866;5.420;2023-12-28T00:15:32;11.30;65.80
83553;DHT22;73510;50.866;5.420;2023-12-28T00:17:58;11.30;65.80
83553;DHT22;73510;50.866;5.420;2023-12-28T00:20:24;11.20;66.00
83553;DHT22;73510;50.866;5.420;2023-12-28T00:22:49;11.30;65.90
83553;DHT22;73510;50.866;5.420;2023-12-28T00:25:15;11.30;65.90
83553;DHT22;73510;50.866;5.420;2023-12-28T00:27:41;11.20;66.10
83553;DHT22;73510;50.866;5.420;2023-12-28T00:30:07;11.20;66.40
83553;DHT22;73510;50.866;5.420;2023-12-28T00:32:33;11.20;66.50
83553;DHT22;73510;50.866;5.420;2023-12-28T00:34:58;11.20;66.40
83553;DHT22;73510;50.866;5.420;2023-12-28T00:37:24;11.10;66.50
83553;DHT22;73510;50.866;5.420;2023-12-28T00:39:50;11.20;66.70
83553;DHT22;73510;50.866;5.420;2023-12-28T00:42:17;11.20;66.70
83553;DHT22;73510;50.866;5.420;2023-12-28T00:44:43;11.20;66.60
83553;DHT22;73510;50.866;5.420;2023-12-28T00:47:08;11.10;66.80
83553;DHT22;73510;50.866;5.420;2023-12-28T00:49:34;11.10;67.00
83553;DHT22;73510;50.866;5.420;2023-12-28T00:52:00;11.10;67.10
83553;DHT22;73510;50.866;5.420;2023-12-28T00:54:25;11.10;67.10
83553;DHT22;73510;50.866;5.420;2023-12-28T00:56:51;11.10;67.20
83553;DHT22;73510;50.866;5.420;2023-12-28T00:59:17;11.10;67.30
83553;DHT22;73510;50.866;5.420;2023-12-28T01:01:42;11.10;67.20
83553;DHT22;73510;50.866;5.420;2023-12-28T01:04:09;11.10;67.20
83553;DHT22;73510;50.866;5.420;2023-12-28T01:06:34;11.10;67.30
83553;DHT22;73510;50.866;5.420;2023-12-28T01:09:01;11.10;67.30
83553;DHT22;73510;50.866;5.420;2023-12-28T01:11:26;11.10;67.50
83553;DHT22;73510;50.866;5.420;2023-12-28T01:13:53;11.10;67.50
83553;DHT22;73510;50.866;5.420;2023-12-28T01:16:18;11.00;67.60
83553;DHT22;73510;50.866;5.420;2023-12-28T01:18:44;11.00;67.70
83553;DHT22;73510;50.866;5.420;2023-12-28T01:21:10;10.90;67.70
83553;DHT22;73510;50.866;5.420;2023-12-28T01:23:35;10.90;67.90
83553;DHT22;73510;50.866;5.420;2023-12-28T01:26:01;10.90;68.00
83553;DHT22;73510;50.866;5.420;2023-12-28T01:28:27;10.90;68.10
83553;DHT22;73510;50.866;5.420;2023-12-28T01:30:53;10.90;68.10
83553;DHT22;73510;50.866;5.420;2023-12-28T01:33:19;10.90;68.00
83553;DHT22;73510;50.866;5.420;2023-12-28T01:35:44;10.90;68.10
83553;DHT22;73510;50.866;5.420;2023-12-28T01:38:10;10.90;68.10
83553;DHT22;73510;50.866;5.420;2023-12-28T01:40:36;10.90;68.20
83553;DHT22;73510;50.866;5.420;2023-12-28T01:43:02;10.80;68.40
83553;DHT22;73510;50.866;5.420;2023-12-28T01:45:27;10.80;68.50
83553;DHT22;73510;50.866;5.420;2023-12-28T01:47:54;10.80;68.50
83553;DHT22;73510;50.866;5.420;2023-12-28T01:50:23;10.80;68.60
83553;DHT22;73510;50.866;5.420;2023-12-28T01:52:51;10.80;68.50
83553;DHT22;73510;50.866;5.420;2023-12-28T01:55:18;10.70;68.70
83553;DHT22;73510;50.866;5.420;2023-12-28T01:57:44;10.70;68.70
83553;DHT22;73510;50.866;5.420;2023-12-28T02:00:11;10.80;68.70
83553;DHT22;73510;50.866;5.420;2023-12-28T02:02:37;10.80;68.60
83553;DHT22;73510;50.866;5.420;2023-12-28T02:05:03;10.70;68.70
83553;DHT22;73510;50.866;5.420;2023-12-28T02:07:29;10.80;68.70
83553;DHT22;73510;50.866;5.420;2023-12-28T02:09:56;10.70;68.70
83553;DHT22;73510;50.866;5.420;2023-12-28T02:12:22;10.80;68.70
83553;DHT22;73510;50.866;5.420;2023-12-28T02:14:48;10.80;68.70
83553;DHT22;73510;50.866;5.420;2023-12-28T02:17:22;10.70;68.70
83553;DHT22;73510;50.866;5.420;2023-12-28T02:19:55;10.70;68.60
83553;DHT22;73510;50.866;5.420;2023-12-28T02:22:24;10.70;68.80
83553;DHT22;73510;50.866;5.420;2023-12-28T02:27:26;10.70;68.90
83553;DHT22;73510;50.866;5.420;2023-12-28T02:29:52;10.70;68.90
83553;DHT22;73510;50.866;5.420;2023-12-28T02:32:25;10.70;69.00
83553;DHT22;73510;50.866;5.420;2023-12-28T02:34:57;10.70;69.00
83553;DHT22;73510;50.866;5.420;2023-12-28T02:37:25;10.70;69.00
83553;DHT22;73510;50.866;5.420;2023-12-28T02:39:51;10.70;69.00
83553;DHT22;73510;50.866;5.420;2023-12-28T02:42:18;10.70;68.90
83553;DHT22;73510;50.866;5.420;2023-12-28T02:44:44;10.70;68.90
83553;DHT22;73510;50.866;5.420;2023-12-28T02:47:10;10.70;69.10
83553;DHT22;73510;50.866;5.420;2023-12-28T02:49:36;10.70;69.00
83553;DHT22;73510;50.866;5.420;2023-12-28T02:52:01;10.70;69.00
83553;DHT22;73510;50.866;5.420;2023-12-28T02:54:27;10.70;69.00
83553;DHT22;73510;50.866;5.420;2023-12-28T02:56:54;10.70;69.00
83553;DHT22;73510;50.866;5.420;2023-12-28T02:59:19;10.70;69.00
83553;DHT22;73510;50.866;5.420;2023-12-28T03:01:45;10.70;69.00
83553;DHT22;73510;50.866;5.420;2023-12-28T03:04:11;10.70;69.00
83553;DHT22;73510;50.866;5.420;2023-12-28T03:06:36;10.70;69.00
83553;DHT22;73510;50.866;5.420;2023-12-28T03:09:04;10.70;69.10
83553;DHT22;73510;50.866;5.420;2023-12-28T03:11:30;10.60;69.10
83553;DHT22;73510;50.866;5.420;2023-12-28T03:13:58;10.60;69.10
83553;DHT22;73510;50.866;5.420;2023-12-28T03:16:25;10.70;69.10
83553;DHT22;73510;50.866;5.420;2023-12-28T03:18:50;10.70;69.20
83553;DHT22;73510;50.866;5.420;2023-12-28T03:21:16;10.60;69.20
83553;DHT22;73510;50.866;5.420;2023-12-28T03:23:42;10.60;69.30
83553;DHT22;73510;50.866;5.420;2023-12-28T03:26:07;10.60;69.20
83553;DHT22;73510;50.866;5.420;2023-12-28T03:28:33;10.60;69.40
83553;DHT22;73510;50.866;5.420;2023-12-28T03:31:02;10.70;69.30
83553;DHT22;73510;50.866;5.420;2023-12-28T03:33:28;10.70;69.20
83553;DHT22;73510;50.866;5.420;2023-12-28T03:35:54;10.70;69.10
83553;DHT22;73510;50.866;5.420;2023-12-28T03:38:19;10.70;69.10
83553;DHT22;73510;50.866;5.420;2023-12-28T03:40:45;10.70;69.10
83553;DHT22;73510;50.866;5.420;2023-12-28T03:43:13;10.70;69.10
83553;DHT22;73510;50.866;5.420;2023-12-28T03:45:38;10.70;69.00
83553;DHT22;73510;50.866;5.420;2023-12-28T03:48:04;10.70;69.10
83553;DHT22;73510;50.866;5.420;2023-12-28T03:50:31;10.60;69.10
83553;DHT22;73510;50.866;5.420;2023-12-28T03:52:56;10.60;69.10
83553;DHT22;73510;50.866;5.420;2023-12-28T03:55:24;10.60;69.20
83553;DHT22;73510;50.866;5.420;2023-12-28T03:57:50;10.60;69.00
83553;DHT22;73510;50.866;5.420;2023-12-28T04:00:16;10.60;69.00
83553;DHT22;73510;50.866;5.420;2023-12-28T04:02:42;10.60;68.90
83553;DHT22;73510;50.866;5.420;2023-12-28T04:05:08;10.50;68.90
83553;DHT22;73510;50.866;5.420;2023-12-28T04:07:33;10.50;69.00
83553;DHT22;73510;50.866;5.420;2023-12-28T04:09:59;10.50;68.90
83553;DHT22;73510;50.866;5.420;2023-12-28T04:12:25;10.60;68.90
83553;DHT22;73510;50.866;5.420;2023-12-28T04:14:51;10.50;68.90
83553;DHT22;73510;50.866;5.420;2023-12-28T04:17:17;10.50;69.00
83553;DHT22;73510;50.866;5.420;2023-12-28T04:19:42;10.60;68.90
83553;DHT22;73510;50.866;5.420;2023-12-28T04:22:08;10.60;68.90
83553;DHT22;73510;50.866;5.420;2023-12-28T04:24:34;10.60;69.00
83553;DHT22;73510;50.866;5.420;2023-12-28T04:27:00;10.60;68.90
83553;DHT22;73510;50.866;5.420;2023-12-28T04:29:26;10.70;68.90
83553;DHT22;73510;50.866;5.420;2023-12-28T04:31:52;10.80;68.60
83553;DHT22;73510;50.866;5.420;2023-12-28T04:34:17;10.80;68.60
83553;DHT22;73510;50.866;5.420;2023-12-28T04:36:44;10.80;68.60
83553;DHT22;73510;50.866;5.420;2023-12-28T04:39:11;10.80;68.70
83553;DHT22;73510;50.866;5.420;2023-12-28T04:41:37;10.80;68.60
83553;DHT22;73510;50.866;5.420;2023-12-28T04:44:03;10.80;68.50
83553;DHT22;73510;50.866;5.420;2023-12-28T04:46:29;10.80;68.50
83553;DHT22;73510;50.866;5.420;2023-12-28T04:48:54;10.80;68.50
83553;DHT22;73510;50.866;5.420;2023-12-28T04:51:20;10.80;68.60
83553;DHT22;73510;50.866;5.420;2023-12-28T04:53:45;10.90;68.40
83553;DHT22;73510;50.866;5.420;2023-12-28T04:56:11;10.90;68.30
83553;DHT22;73510;50.866;5.420;2023-12-28T04:58:37;10.90;68.20
83553;DHT22;73510;50.866;5.420;2023-12-28T05:01:03;11.00;68.20
83553;DHT22;73510;50.866;5.420;2023-12-28T05:03:28;11.00;68.00
83553;DHT22;73510;50.866;5.420;2023-12-28T05:05:54;11.00;67.90
83553;DHT22;73510;50.866;5.420;2023-12-28T05:08:19;11.00;67.90
83553;DHT22;73510;50.866;5.420;2023-12-28T05:10:46;11.00;67.90
83553;DHT22;73510;50.866;5.420;2023-12-28T05:13:11;11.10;67.70
83553;DHT22;73510;50.866;5.420;2023-12-28T05:15:37;11.10;67.80
83553;DHT22;73510;50.866;5.420;2023-12-28T05:18:03;11.10;67.50
83553;DHT22;73510;50.866;5.420;2023-12-28T05:20:29;11.10;67.60
83553;DHT22;73510;50.866;5.420;2023-12-28T05:22:55;11.10;67.50
83553;DHT22;73510;50.866;5.420;2023-12-28T05:25:20;11.10;67.40
83553;DHT22;73510;50.866;5.420;2023-12-28T05:27:46;11.10;67.20
83553;DHT22;73510;50.866;5.420;2023-12-28T05:30:12;11.10;67.20
83553;DHT22;73510;50.866;5.420;2023-12-28T05:32:38;11.10;67.40
83553;DHT22;73510;50.866;5.420;2023-12-28T05:35:04;11.10;67.30
83553;DHT22;73510;50.866;5.420;2023-12-28T05:37:30;11.10;67.20
83553;DHT22;73510;50.866;5.420;2023-12-28T05:39:55;11.10;67.10
83553;DHT22;73510;50.866;5.420;2023-12-28T05:42:21;11.10;67.10
83553;DHT22;73510;50.866;5.420;2023-12-28T05:44:46;11.10;67.00
83553;DHT22;73510;50.866;5.420;2023-12-28T05:47:12;11.00;67.10
83553;DHT22;73510;50.866;5.420;2023-12-28T05:49:38;10.90;67.30
83553;DHT22;73510;50.866;5.420;2023-12-28T05:52:04;10.90;67.30
83553;DHT22;73510;50.866;5.420;2023-12-28T05:54:29;10.90;67.30
83553;DHT22;73510;50.866;5.420;2023-12-28T05:56:55;10.80;67.50
83553;DHT22;73510;50.866;5.420;2023-12-28T05:59:21;10.80;67.50
83553;DHT22;73510;50.866;5.420;2023-12-28T06:01:47;10.70;67.70
83553;DHT22;73510;50.866;5.420;2023-12-28T06:04:13;10.70;67.90
83553;DHT22;73510;50.866;5.420;2023-12-28T06:06:39;10.70;68.00
83553;DHT22;73510;50.866;5.420;2023-12-28T06:09:05;10.70;67.80
83553;DHT22;73510;50.866;5.420;2023-12-28T06:11:31;10.70;67.90
83553;DHT22;73510;50.866;5.420;2023-12-28T06:13:57;10.70;67.80
83553;DHT22;73510;50.866;5.420;2023-12-28T06:16:22;10.70;67.80
83553;DHT22;73510;50.866;5.420;2023-12-28T06:18:48;10.60;68.00
83553;DHT22;73510;50.866;5.420;2023-12-28T06:21:14;10.60;68.00
83553;DHT22;73510;50.866;5.420;2023-12-28T06:23:40;10.60;68.00
83553;DHT22;73510;50.866;5.420;2023-12-28T06:26:05;10.60;67.90
83553;DHT22;73510;50.866;5.420;2023-12-28T06:28:33;10.60;68.00
83553;DHT22;73510;50.866;5.420;2023-12-28T06:30:58;10.60;68.20
83553;DHT22;73510;50.866;5.420;2023-12-28T06:33:28;10.60;68.40
83553;DHT22;73510;50.866;5.420;2023-12-28T06:35:54;10.60;68.40
83553;DHT22;73510;50.866;5.420;2023-12-28T06:38:20;10.60;68.30
83553;DHT22;73510;50.866;5.420;2023-12-28T06:40:46;10.70;68.20
83553;DHT22;73510;50.866;5.420;2023-12-28T06:43:11;10.70;68.40
83553;DHT22;73510;50.866;5.420;2023-12-28T06:45:37;10.80;68.10
83553;DHT22;73510;50.866;5.420;2023-12-28T06:48:04;10.80;68.00
83553;DHT22;73510;50.866;5.420;2023-12-28T06:50:30;10.90;67.70
83553;DHT22;73510;50.866;5.420;2023-12-28T06:52:55;10.90;67.60
83553;DHT22;73510;50.866;5.420;2023-12-28T06:55:21;10.90;67.50
83553;DHT22;73510;50.866;5.420;2023-12-28T06:57:47;10.90;67.60
83553;DHT22;73510;50.866;5.420;2023-12-28T07:00:13;10.90;67.70
83553;DHT22;73510;50.866;5.420;2023-12-28T07:02:39;10.90;67.50
83553;DHT22;73510;50.866;5.420;2023-12-28T07:05:05;10.90;67.50
83553;DHT22;73510;50.866;5.420;2023-12-28T07:07:31;10.90;67.40
83553;DHT22;73510;50.866;5.420;2023-12-28T07:09:57;10.90;67.30
83553;DHT22;73510;50.866;5.420;2023-12-28T07:12:23;10.90;67.30
83553;DHT22;73510;50.866;5.420;2023-12-28T07:14:49;10.90;67.30
83553;DHT22;73510;50.866;5.420;2023-12-28T07:17:15;10.90;67.30
83553;DHT22;73510;50.866;5.420;2023-12-28T07:19:43;10.90;67.20
83553;DHT22;73510;50.866;5.420;2023-12-28T07:22:09;11.00;67.10
83553;DHT22;73510;50.866;5.420;2023-12-28T07:24:34;10.90;66.90
83553;DHT22;73510;50.866;5.420;2023-12-28T07:27:00;10.90;67.20
83553;DHT22;73510;50.866;5.420;2023-12-28T07:29:26;10.90;67.20
83553;DHT22;73510;50.866;5.420;2023-12-28T07:31:53;11.00;67.10
83553;DHT22;73510;50.866;5.420;2023-12-28T07:34:19;11.00;67.20
83553;DHT22;73510;50.866;5.420;2023-12-28T07:36:45;11.00;67.00
83553;DHT22;73510;50.866;5.420;2023-12-28T07:39:11;11.00;66.90
83553;DHT22;73510;50.866;5.420;2023-12-28T07:41:37;11.10;67.10
83553;DHT22;73510;50.866;5.420;2023-12-28T07:44:03;11.10;66.80
83553;DHT22;73510;50.866;5.420;2023-12-28T07:46:28;11.10;66.50
83553;DHT22;73510;50.866;5.420;2023-12-28T07:48:57;11.10;66.50
83553;DHT22;73510;50.866;5.420;2023-12-28T07:51:23;11.10;66.40
83553;DHT22;73510;50.866;5.420;2023-12-28T07:53:48;11.10;66.40
83553;DHT22;73510;50.866;5.420;2023-12-28T07:56:14;11.10;66.40
83553;DHT22;73510;50.866;5.420;2023-12-28T07:58:40;11.00;66.50
83553;DHT22;73510;50.866;5.420;2023-12-28T08:01:12;10.90;66.50
83553;DHT22;73510;50.866;5.420;2023-12-28T08:03:37;10.90;66.50
83553;DHT22;73510;50.866;5.420;2023-12-28T08:06:03;10.80;66.50
83553;DHT22;73510;50.866;5.420;2023-12-28T08:08:29;10.80;66.50
83553;DHT22;73510;50.866;5.420;2023-12-28T08:10:55;10.90;66.50
83553;DHT22;73510;50.866;5.420;2023-12-28T08:13:21;10.80;66.50
83553;DHT22;73510;50.866;5.420;2023-12-28T08:15:46;10.80;66.50
83553;DHT22;73510;50.866;5.420;2023-12-28T08:18:13;10.80;66.20
83553;DHT22;73510;50.866;5.420;2023-12-28T08:20:38;10.80;66.20
83553;DHT22;73510;50.866;5.420;2023-12-28T08:23:04;10.80;66.30
83553;DHT22;73510;50.866;5.420;2023-12-28T08:25:30;10.80;66.10
83553;DHT22;73510;50.866;5.420;2023-12-28T08:27:55;10.80;66.00
83553;DHT22;73510;50.866;5.420;2023-12-28T08:30:22;10.90;65.80
83553;DHT22;73510;50.866;5.420;2023-12-28T08:32:47;11.00;65.60
83553;DHT22;73510;50.866;5.420;2023-12-28T08:35:13;11.00;65.60
83553;DHT22;73510;50.866;5.420;2023-12-28T08:37:39;11.00;65.50
83553;DHT22;73510;50.866;5.420;2023-12-28T08:40:05;11.10;65.50
83553;DHT22;73510;50.866;5.420;2023-12-28T08:42:31;11.10;65.20
83553;DHT22;73510;50.866;5.420;2023-12-28T08:44:56;11.10;65.20
83553;DHT22;73510;50.866;5.420;2023-12-28T08:47:22;11.20;65.20
83553;DHT22;73510;50.866;5.420;2023-12-28T08:49:48;11.30;65.00
83553;DHT22;73510;50.866;5.420;2023-12-28T08:52:14;11.30;65.20
83553;DHT22;73510;50.866;5.420;2023-12-28T08:54:40;11.40;64.80
83553;DHT22;73510;50.866;5.420;2023-12-28T08:57:06;11.50;64.60
83553;DHT22;73510;50.866;5.420;2023-12-28T08:59:36;11.50;64.20
83553;DHT22;73510;50.866;5.420;2023-12-28T09:02:02;11.70;63.80
83553;DHT22;73510;50.866;5.420;2023-12-28T09:04:27;11.80;63.70
83553;DHT22;73510;50.866;5.420;2023-12-28T09:06:53;11.90;63.40
83553;DHT22;73510;50.866;5.420;2023-12-28T09:09:19;12.10;63.30
83553;DHT22;73510;50.866;5.420;2023-12-28T09:11:44;12.20;63.20
83553;DHT22;73510;50.866;5.420;2023-12-28T09:14:10;12.30;63.50
83553;DHT22;73510;50.866;5.420;2023-12-28T09:16:36;12.50;63.40
83553;DHT22;73510;50.866;5.420;2023-12-28T09:19:01;12.50;63.50
83553;DHT22;73510;50.866;5.420;2023-12-28T09:21:27;12.70;63.20
83553;DHT22;73510;50.866;5.420;2023-12-28T09:23:53;12.70;62.70
83553;DHT22;73510;50.866;5.420;2023-12-28T09:26:19;12.70;62.90
83553;DHT22;73510;50.866;5.420;2023-12-28T09:28:44;12.70;63.20
83553;DHT22;73510;50.866;5.420;2023-12-28T09:31:10;12.70;63.00
83553;DHT22;73510;50.866;5.420;2023-12-28T09:33:36;12.80;62.50
83553;DHT22;73510;50.866;5.420;2023-12-28T09:36:05;12.70;62.80
83553;DHT22;73510;50.866;5.420;2023-12-28T09:38:31;12.60;62.60
83553;DHT22;73510;50.866;5.420;2023-12-28T09:41:00;12.70;62.90
83553;DHT22;73510;50.866;5.420;2023-12-28T09:43:36;12.60;63.00
83553;DHT22;73510;50.866;5.420;2023-12-28T09:46:06;12.70;62.70
83553;DHT22;73510;50.866;5.420;2023-12-28T09:48:33;12.70;62.50
83553;DHT22;73510;50.866;5.420;2023-12-28T09:50:59;12.70;62.60
83553;DHT22;73510;50.866;5.420;2023-12-28T09:53:25;12.80;62.60
83553;DHT22;73510;50.866;5.420;2023-12-28T09:55:51;12.80;62.70
83553;DHT22;73510;50.866;5.420;2023-12-28T09:58:18;12.80;63.00
83553;DHT22;73510;50.866;5.420;2023-12-28T10:00:45;12.80;62.90
83553;DHT22;73510;50.866;5.420;2023-12-28T10:03:15;12.80;62.50
83553;DHT22;73510;50.866;5.420;2023-12-28T10:05:42;12.70;62.40
83553;DHT22;73510;50.866;5.420;2023-12-28T10:08:08;12.70;62.90
83553;DHT22;73510;50.866;5.420;2023-12-28T10:10:34;12.70;63.30
83553;DHT22;73510;50.866;5.420;2023-12-28T10:13:00;12.70;62.60
83553;DHT22;73510;50.866;5.420;2023-12-28T10:15:26;12.70;62.70
83553;DHT22;73510;50.866;5.420;2023-12-28T10:17:52;12.80;63.00
83553;DHT22;73510;50.866;5.420;2023-12-28T10:20:18;12.80;62.50
83553;DHT22;73510;50.866;5.420;2023-12-28T10:22:44;12.70;62.60
83553;DHT22;73510;50.866;5.420;2023-12-28T10:25:11;12.70;62.70
83553;DHT22;73510;50.866;5.420;2023-12-28T10:27:40;12.70;62.80
83553;DHT22;73510;50.866;5.420;2023-12-28T10:30:08;12.70;63.00
83553;DHT22;73510;50.866;5.420;2023-12-28T10:32:40;12.50;63.10
83553;DHT22;73510;50.866;5.420;2023-12-28T10:35:06;12.60;62.70
83553;DHT22;73510;50.866;5.420;2023-12-28T10:37:32;12.60;63.30
83553;DHT22;73510;50.866;5.420;2023-12-28T10:40:01;12.60;62.80
83553;DHT22;73510;50.866;5.420;2023-12-28T10:42:32;12.50;62.60
83553;DHT22;73510;50.866;5.420;2023-12-28T10:45:05;12.70;62.50
83553;DHT22;73510;50.866;5.420;2023-12-28T10:47:38;12.70;62.60
83553;DHT22;73510;50.866;5.420;2023-12-28T10:50:05;12.70;62.70
83553;DHT22;73510;50.866;5.420;2023-12-28T10:52:33;12.80;62.90
83553;DHT22;73510;50.866;5.420;2023-12-28T10:55:23;12.80;62.70
83553;DHT22;73510;50.866;5.420;2023-12-28T10:58:05;12.90;63.00
83553;DHT22;73510;50.866;5.420;2023-12-28T11:00:33;13.00;62.60
83553;DHT22;73510;50.866;5.420;2023-12-28T11:03:03;13.00;62.90
83553;DHT22;73510;50.866;5.420;2023-12-28T11:05:31;13.10;62.60
83553;DHT22;73510;50.866;5.420;2023-12-28T11:07:57;13.10;62.90
83553;DHT22;73510;50.866;5.420;2023-12-28T11:10:24;13.10;62.40
83553;DHT22;73510;50.866;5.420;2023-12-28T11:12:54;13.30;62.70
83553;DHT22;73510;50.866;5.420;2023-12-28T11:15:20;13.30;62.30
83553;DHT22;73510;50.866;5.420;2023-12-28T11:17:46;13.50;62.40
83553;DHT22;73510;50.866;5.420;2023-12-28T11:20:13;13.50;61.60
83553;DHT22;73510;50.866;5.420;2023-12-28T11:22:40;13.50;61.50
83553;DHT22;73510;50.866;5.420;2023-12-28T11:25:06;13.50;61.50
83553;DHT22;73510;50.866;5.420;2023-12-28T11:27:35;13.50;61.60
83553;DHT22;73510;50.866;5.420;2023-12-28T11:30:03;13.60;62.00
83553;DHT22;73510;50.866;5.420;2023-12-28T11:32:32;13.50;60.90
83553;DHT22;73510;50.866;5.420;2023-12-28T11:34:59;13.50;61.60
83553;DHT22;73510;50.866;5.420;2023-12-28T11:37:26;13.60;61.10
83553;DHT22;73510;50.866;5.420;2023-12-28T11:39:54;13.60;61.20
83553;DHT22;73510;50.866;5.420;2023-12-28T11:42:23;13.60;61.30
83553;DHT22;73510;50.866;5.420;2023-12-28T11:44:54;13.60;61.20
83553;DHT22;73510;50.866;5.420;2023-12-28T11:47:24;13.60;61.50
83553;DHT22;73510;50.866;5.420;2023-12-28T11:49:51;13.60;61.10
83553;DHT22;73510;50.866;5.420;2023-12-28T11:52:28;13.70;61.30
83553;DHT22;73510;50.866;5.420;2023-12-28T11:54:54;13.60;61.30
83553;DHT22;73510;50.866;5.420;2023-12-28T11:57:21;13.70;60.90
83553;DHT22;73510;50.866;5.420;2023-12-28T11:59:53;13.70;60.90
83553;DHT22;73510;50.866;5.420;2023-12-28T12:02:20;13.70;61.20
83553;DHT22;73510;50.866;5.420;2023-12-28T12:04:45;13.70;61.10
83553;DHT22;73510;50.866;5.420;2023-12-28T12:07:11;13.70;61.50
83553;DHT22;73510;50.866;5.420;2023-12-28T12:09:37;13.70;61.20
83553;DHT22;73510;50.866;5.420;2023-12-28T12:12:03;13.70;60.90
83553;DHT22;73510;50.866;5.420;2023-12-28T12:14:30;13.80;60.50
83553;DHT22;73510;50.866;5.420;2023-12-28T12:16:56;13.70;60.70
83553;DHT22;73510;50.866;5.420;2023-12-28T12:19:24;13.70;60.90
83553;DHT22;73510;50.866;5.420;2023-12-28T12:21:54;13.70;60.80
83553;DHT22;73510;50.866;5.420;2023-12-28T12:24:21;13.70;60.60
83553;DHT22;73510;50.866;5.420;2023-12-28T12:26:47;13.70;60.90
83553;DHT22;73510;50.866;5.420;2023-12-28T12:29:13;13.60;60.50
83553;DHT22;73510;50.866;5.420;2023-12-28T12:31:42;13.60;60.70
83553;DHT22;73510;50.866;5.420;2023-12-28T12:34:10;13.60;60.50
83553;DHT22;73510;50.866;5.420;2023-12-28T12:36:36;13.70;60.50
83553;DHT22;73510;50.866;5.420;2023-12-28T12:39:03;13.70;60.30
83553;DHT22;73510;50.866;5.420;2023-12-28T12:41:35;13.70;60.00
83553;DHT22;73510;50.866;5.420;2023-12-28T12:44:01;13.60;60.00
83553;DHT22;73510;50.866;5.420;2023-12-28T12:46:27;13.60;60.10
83553;DHT22;73510;50.866;5.420;2023-12-28T12:48:58;13.60;60.00
83553;DHT22;73510;50.866;5.420;2023-12-28T12:51:25;13.50;60.30
83553;DHT22;73510;50.866;5.420;2023-12-28T12:53:58;13.60;60.20
83553;DHT22;73510;50.866;5.420;2023-12-28T12:56:28;13.50;60.20
83553;DHT22;73510;50.866;5.420;2023-12-28T12:58:54;13.50;60.10
83553;DHT22;73510;50.866;5.420;2023-12-28T13:01:20;13.50;60.30
83553;DHT22;73510;50.866;5.420;2023-12-28T13:03:46;13.50;60.30
83553;DHT22;73510;50.866;5.420;2023-12-28T13:06:12;13.50;60.30
83553;DHT22;73510;50.866;5.420;2023-12-28T13:08:38;13.50;61.00
83553;DHT22;73510;50.866;5.420;2023-12-28T13:11:05;13.50;60.80
83553;DHT22;73510;50.866;5.420;2023-12-28T13:13:33;13.50;60.70
83553;DHT22;73510;50.866;5.420;2023-12-28T13:15:58;13.50;61.10
83553;DHT22;73510;50.866;5.420;2023-12-28T13:18:24;13.50;60.30
83553;DHT22;73510;50.866;5.420;2023-12-28T13:20:50;13.50;59.90
83553;DHT22;73510;50.866;5.420;2023-12-28T13:23:15;13.40;59.90
83553;DHT22;73510;50.866;5.420;2023-12-28T13:25:41;13.40;60.70
83553;DHT22;73510;50.866;5.420;2023-12-28T13:28:08;13.40;60.50
83553;DHT22;73510;50.866;5.420;2023-12-28T13:30:35;13.40;60.30
83553;DHT22;73510;50.866;5.420;2023-12-28T13:33:02;13.30;59.90
83553;DHT22;73510;50.866;5.420;2023-12-28T13:35:28;13.30;59.90
83553;DHT22;73510;50.866;5.420;2023-12-28T13:37:54;13.30;60.20
83553;DHT22;73510;50.866;5.420;2023-12-28T13:40:20;13.30;60.40
83553;DHT22;73510;50.866;5.420;2023-12-28T13:42:46;13.30;60.90
83553;DHT22;73510;50.866;5.420;2023-12-28T13:45:12;13.30;60.40
83553;DHT22;73510;50.866;5.420;2023-12-28T13:47:38;13.30;60.40
83553;DHT22;73510;50.866;5.420;2023-12-28T13:50:05;13.20;60.30
83553;DHT22;73510;50.866;5.420;2023-12-28T13:52:32;13.20;60.40
83553;DHT22;73510;50.866;5.420;2023-12-28T13:54:57;13.10;60.50
83553;DHT22;73510;50.866;5.420;2023-12-28T13:57:23;13.10;60.50
83553;DHT22;73510;50.866;5.420;2023-12-28T13:59:49;13.10;60.30
83553;DHT22;73510;50.866;5.420;2023-12-28T14:02:14;13.10;60.70
83553;DHT22;73510;50.866;5.420;2023-12-28T14:04:40;13.10;60.30
83553;DHT22;73510;50.866;5.420;2023-12-28T14:07:06;13.10;60.50
83553;DHT22;73510;50.866;5.420;2023-12-28T14:09:31;13.00;60.50
83553;DHT22;73510;50.866;5.420;2023-12-28T14:11:58;13.00;60.30
83553;DHT22;73510;50.866;5.420;2023-12-28T14:14:24;13.00;60.70
83553;DHT22;73510;50.866;5.420;2023-12-28T14:16:50;13.00;60.70
83553;DHT22;73510;50.866;5.420;2023-12-28T14:19:15;13.00;60.40
83553;DHT22;73510;50.866;5.420;2023-12-28T14:21:41;12.90;60.70
83553;DHT22;73510;50.866;5.420;2023-12-28T14:24:07;12.90;60.90
83553;DHT22;73510;50.866;5.420;2023-12-28T14:26:34;12.80;60.90
83553;DHT22;73510;50.866;5.420;2023-12-28T14:29:01;12.80;60.50
83553;DHT22;73510;50.866;5.420;2023-12-28T14:31:31;12.80;60.80
83553;DHT22;73510;50.866;5.420;2023-12-28T14:33:57;12.80;61.20
83553;DHT22;73510;50.866;5.420;2023-12-28T14:36:35;12.70;60.90
83553;DHT22;73510;50.866;5.420;2023-12-28T14:39:04;12.70;60.50
83553;DHT22;73510;50.866;5.420;2023-12-28T14:41:37;12.70;60.70
83553;DHT22;73510;50.866;5.420;2023-12-28T14:44:03;12.60;60.40
83553;DHT22;73510;50.866;5.420;2023-12-28T14:46:29;12.60;60.80
83553;DHT22;73510;50.866;5.420;2023-12-28T14:48:55;12.60;60.80
83553;DHT22;73510;50.866;5.420;2023-12-28T14:51:21;12.60;60.70
83553;DHT22;73510;50.866;5.420;2023-12-28T14:53:48;12.50;60.90
83553;DHT22;73510;50.866;5.420;2023-12-28T14:56:14;12.50;60.70
83553;DHT22;73510;50.866;5.420;2023-12-28T14:58:43;12.50;60.70
83553;DHT22;73510;50.866;5.420;2023-12-28T15:01:14;12.50;60.90
83553;DHT22;73510;50.866;5.420;2023-12-28T15:03:40;12.50;61.10
83553;DHT22;73510;50.866;5.420;2023-12-28T15:06:06;12.50;61.20
83553;DHT22;73510;50.866;5.420;2023-12-28T15:08:32;12.30;61.30
83553;DHT22;73510;50.866;5.420;2023-12-28T15:10:58;12.30;61.40
83553;DHT22;73510;50.866;5.420;2023-12-28T15:13:26;12.30;61.00
83553;DHT22;73510;50.866;5.420;2023-12-28T15:15:52;12.30;61.20
83553;DHT22;73510;50.866;5.420;2023-12-28T15:18:18;12.30;61.10
83553;DHT22;73510;50.866;5.420;2023-12-28T15:20:47;12.30;61.20
83553;DHT22;73510;50.866;5.420;2023-12-28T15:23:14;12.20;61.20
83553;DHT22;73510;50.866;5.420;2023-12-28T15:25:42;12.20;61.40
83553;DHT22;73510;50.866;5.420;2023-12-28T15:28:08;12.20;61.40